createdAt,value
2023-01-17T00:00:37.430Z,81.70
2023-01-17T00:01:40.130Z,81.84
2023-01-17T00:02:41.751Z,81.23
2023-01-17T00:04:01.842Z,81.35
2023-01-17T00:05:24.035Z,82.08
2023-01-17T00:06:44.380Z,82.67
2023-01-17T00:08:04.726Z,82.62
2023-01-17T00:09:25.153Z,82.25
2023-01-17T00:10:30.231Z,82.06
2023-01-17T00:11:31.807Z,81.90
2023-01-17T00:12:35.532Z,81.95
2023-01-17T00:13:37.051Z,82.66
2023-01-17T00:14:39.602Z,82.45
2023-01-17T00:15:41.249Z,82.71
2023-01-17T00:16:43.785Z,83.38
2023-01-17T00:17:46.722Z,82.97
2023-01-17T00:19:03.265Z,83.70
2023-01-17T00:20:26.020Z,83.65
2023-01-17T00:21:45.864Z,82.89
2023-01-17T00:23:06.329Z,82.65
2023-01-17T00:24:27.151Z,83.15
2023-01-17T00:25:49.116Z,82.32
2023-01-17T00:27:05.588Z,83.06
2023-01-17T00:28:10.137Z,83.24
2023-01-17T00:29:11.613Z,83.33
2023-01-17T00:30:13.872Z,82.75
2023-01-17T00:31:16.610Z,82.75
2023-01-17T00:32:18.309Z,82.29
2023-01-17T00:33:21.345Z,82.37
2023-01-17T00:34:22.818Z,82.50
2023-01-17T00:35:27.965Z,82.71
2023-01-17T00:36:29.481Z,82.95
2023-01-17T00:37:30.902Z,82.66
2023-01-17T00:38:34.142Z,83.21
2023-01-17T00:39:35.642Z,82.97
2023-01-17T00:40:39.067Z,83.03
2023-01-17T00:41:40.575Z,82.69
2023-01-17T00:42:42.058Z,83.04
2023-01-17T00:44:01.991Z,83.02
2023-01-17T00:45:25.507Z,82.26
2023-01-17T00:46:45.728Z,81.83
2023-01-17T00:48:06.257Z,81.49
2023-01-17T00:49:27.131Z,81.99
2023-01-17T00:50:48.969Z,82.15
2023-01-17T00:52:09.035Z,82.16
2023-01-17T00:53:29.467Z,82.49
2023-01-17T00:54:49.793Z,82.20
2023-01-17T00:56:10.134Z,81.95
2023-01-17T00:57:30.442Z,81.43
2023-01-17T00:58:50.836Z,80.42
2023-01-17T01:00:11.151Z,80.39
2023-01-17T01:01:31.535Z,80.52
2023-01-17T01:02:52.134Z,79.65
2023-01-17T01:04:11.920Z,80.06
2023-01-17T01:05:33.386Z,79.57
2023-01-17T01:06:55.021Z,79.59
2023-01-17T01:08:15.794Z,79.61
2023-01-17T01:09:36.069Z,80.18
2023-01-17T01:10:56.246Z,80.76
2023-01-17T01:12:16.067Z,80.40
2023-01-17T01:13:36.353Z,79.72
2023-01-17T01:14:56.185Z,80.69
2023-01-17T01:16:18.782Z,81.14
2023-01-17T01:17:38.957Z,81.66
2023-01-17T01:18:59.051Z,81.55
2023-01-17T01:20:18.957Z,81.35
2023-01-17T01:21:39.072Z,81.21
2023-01-17T01:23:00.538Z,80.68
2023-01-17T01:24:20.244Z,80.61
2023-01-17T01:25:40.490Z,81.49
2023-01-17T01:27:00.772Z,80.81
2023-01-17T01:28:22.081Z,81.27
2023-01-17T01:29:42.335Z,81.85
2023-01-17T01:31:02.138Z,81.86
2023-01-17T01:32:22.517Z,83.57
2023-01-17T01:33:24.147Z,83.70
2023-01-17T01:34:28.720Z,83.84
2023-01-17T01:35:30.388Z,83.36
2023-01-17T01:36:32.939Z,84.41
2023-01-17T01:37:34.510Z,84.54
2023-01-17T01:38:38.858Z,83.42
2023-01-17T01:39:40.589Z,83.74
2023-01-17T01:40:51.161Z,83.87
2023-01-17T01:41:55.184Z,84.09
2023-01-17T01:43:00.191Z,83.91
2023-01-17T01:44:02.700Z,83.56
2023-01-17T01:45:17.002Z,83.32
2023-01-17T01:46:24.467Z,84.12
2023-01-17T01:47:30.411Z,84.98
2023-01-17T01:48:37.378Z,85.78
2023-01-17T01:49:39.029Z,84.50
2023-01-17T01:50:41.695Z,84.70
2023-01-17T01:51:46.566Z,85.16
2023-01-17T01:52:52.934Z,84.34
2023-01-17T01:54:04.633Z,84.44
2023-01-17T01:55:11.501Z,83.19
2023-01-17T01:56:15.860Z,83.64
2023-01-17T01:57:24.211Z,83.73
2023-01-17T01:58:33.437Z,83.31
2023-01-17T01:59:39.920Z,83.88
2023-01-17T02:00:42.934Z,83.61
2023-01-17T02:01:44.716Z,83.72
2023-01-17T02:02:50.416Z,83.56
2023-01-17T02:03:53.546Z,84.26
2023-01-17T02:04:55.329Z,84.43
2023-01-17T02:06:05.609Z,84.64
2023-01-17T02:07:12.396Z,84.28
2023-01-17T02:08:17.673Z,84.23
2023-01-17T02:09:20.901Z,83.82
2023-01-17T02:10:24.089Z,83.70
2023-01-17T02:11:26.279Z,83.98
2023-01-17T02:12:29.357Z,83.52
2023-01-17T02:13:31.411Z,83.96
2023-01-17T02:14:35.892Z,84.24
2023-01-17T02:15:45.706Z,83.72
2023-01-17T02:17:03.257Z,84.14
2023-01-17T02:18:16.186Z,85.16
2023-01-17T02:19:48.068Z,85.32
2023-01-17T02:20:58.896Z,86.05
2023-01-17T02:22:06.219Z,85.71
2023-01-17T02:23:38.178Z,86.04
2023-01-17T02:25:03.321Z,86.40
2023-01-17T02:26:31.024Z,86.73
2023-01-17T02:27:54.936Z,86.04
2023-01-17T02:29:13.940Z,85.98
2023-01-17T02:30:36.576Z,86.06
2023-01-17T02:31:45.961Z,85.08
2023-01-17T02:32:59.621Z,84.45
2023-01-17T02:34:10.750Z,85.19
2023-01-17T02:35:20.313Z,85.05
2023-01-17T02:36:26.988Z,85.20
2023-01-17T02:37:34.946Z,84.86
2023-01-17T02:38:46.391Z,85.67
2023-01-17T02:39:54.242Z,85.04
2023-01-17T02:41:03.692Z,84.81
2023-01-17T02:42:10.653Z,85.05
2023-01-17T02:43:16.464Z,86.00
2023-01-17T02:44:20.116Z,86.64
2023-01-17T02:45:23.134Z,86.46
2023-01-17T02:46:26.076Z,86.80
2023-01-17T02:47:30.435Z,85.87
2023-01-17T02:48:36.193Z,86.13
2023-01-17T02:49:39.137Z,86.74
2023-01-17T02:51:00.022Z,86.59
2023-01-17T02:52:16.690Z,86.45
2023-01-17T02:53:31.939Z,86.35
2023-01-17T02:54:55.385Z,86.01
2023-01-17T02:56:03.436Z,86.36
2023-01-17T02:57:19.722Z,86.23
2023-01-17T02:58:42.974Z,86.53
2023-01-17T02:59:57.243Z,86.03
2023-01-17T03:01:10.443Z,86.15
2023-01-17T03:02:22.809Z,87.19
2023-01-17T03:03:30.928Z,86.71
2023-01-17T03:04:37.698Z,86.08
2023-01-17T03:05:45.458Z,86.47
2023-01-17T03:06:52.067Z,86.42
2023-01-17T03:07:56.148Z,86.37
2023-01-17T03:09:00.755Z,86.68
2023-01-17T03:10:08.237Z,86.32
2023-01-17T03:11:10.916Z,85.06
2023-01-17T03:12:14.431Z,85.42
2023-01-17T03:13:16.192Z,85.73
2023-01-17T03:14:19.087Z,85.27
2023-01-17T03:15:20.891Z,85.23
2023-01-17T03:16:26.031Z,85.81
2023-01-17T03:17:32.708Z,85.39
2023-01-17T03:18:35.413Z,85.43
2023-01-17T03:19:36.961Z,85.07
2023-01-17T03:20:39.508Z,85.26
2023-01-17T03:21:43.347Z,84.94
2023-01-17T03:22:45.888Z,85.11
2023-01-17T03:23:48.520Z,85.04
2023-01-17T03:24:50.342Z,85.67
2023-01-17T03:25:55.012Z,85.32
2023-01-17T03:26:56.557Z,84.67
2023-01-17T03:27:59.113Z,84.64
2023-01-17T03:29:02.917Z,83.99
2023-01-17T03:30:06.429Z,83.84
2023-01-17T03:31:08.133Z,83.65
2023-01-17T03:32:10.725Z,82.96
2023-01-17T03:33:16.109Z,83.49
2023-01-17T03:34:18.668Z,83.47
2023-01-17T03:35:20.244Z,83.53
2023-01-17T03:36:22.782Z,84.27
2023-01-17T03:37:24.494Z,84.07
2023-01-17T03:38:27.765Z,83.42
2023-01-17T03:39:29.291Z,83.23
2023-01-17T03:40:31.856Z,83.01
2023-01-17T03:41:33.363Z,83.34
2023-01-17T03:42:35.883Z,83.51
2023-01-17T03:43:37.425Z,83.17
2023-01-17T03:44:40.045Z,83.94
2023-01-17T03:45:41.669Z,83.63
2023-01-17T03:46:44.481Z,83.43
2023-01-17T03:47:46.019Z,83.36
2023-01-17T03:48:50.444Z,83.16
2023-01-17T03:49:52.398Z,83.79
2023-01-17T03:50:54.837Z,83.86
2023-01-17T03:51:56.376Z,83.01
2023-01-17T03:52:58.857Z,83.40
2023-01-17T03:54:00.673Z,82.47
2023-01-17T03:55:03.866Z,82.65
2023-01-17T03:56:06.157Z,82.65
2023-01-17T03:57:09.518Z,81.58
2023-01-17T03:58:11.045Z,82.92
2023-01-17T03:59:13.550Z,83.42
2023-01-17T04:00:15.713Z,82.57
2023-01-17T04:01:19.005Z,82.68
2023-01-17T04:02:20.656Z,82.55
2023-01-17T04:03:23.179Z,82.79
2023-01-17T04:04:26.043Z,82.79
2023-01-17T04:05:28.689Z,83.10
2023-01-17T04:06:30.261Z,82.79
2023-01-17T04:07:32.748Z,82.60
2023-01-17T04:08:34.311Z,82.30
2023-01-17T04:09:36.877Z,82.33
2023-01-17T04:10:38.471Z,82.64
2023-01-17T04:11:41.092Z,82.81
2023-01-17T04:12:42.864Z,82.60
2023-01-17T04:13:45.411Z,83.04
2023-01-17T04:14:48.160Z,82.74
2023-01-17T04:15:54.328Z,82.31
2023-01-17T04:16:56.437Z,82.36
2023-01-17T04:17:59.139Z,81.90
2023-01-17T04:19:00.754Z,81.67
2023-01-17T04:20:07.936Z,81.19
2023-01-17T04:21:09.555Z,81.23
2023-01-17T04:22:12.092Z,81.30
2023-01-17T04:23:13.679Z,81.44
2023-01-17T04:24:17.874Z,81.55
2023-01-17T04:25:20.067Z,81.43
2023-01-17T04:26:22.733Z,81.74
2023-01-17T04:27:24.296Z,82.14
2023-01-17T04:28:26.867Z,81.65
2023-01-17T04:29:28.412Z,82.00
2023-01-17T04:30:31.542Z,82.16
2023-01-17T04:31:33.252Z,81.92
2023-01-17T04:32:35.791Z,81.40
2023-01-17T04:33:37.370Z,80.80
2023-01-17T04:34:39.879Z,80.81
2023-01-17T04:35:42.798Z,80.94
2023-01-17T04:36:45.384Z,80.64
2023-01-17T04:37:47.694Z,80.81
2023-01-17T04:38:50.244Z,80.75
2023-01-17T04:39:51.766Z,80.52
2023-01-17T04:40:54.657Z,80.37
2023-01-17T04:41:56.240Z,80.30
2023-01-17T04:42:59.503Z,80.35
2023-01-17T04:44:01.907Z,80.69
2023-01-17T04:45:05.449Z,80.72
2023-01-17T04:46:10.059Z,81.07
2023-01-17T04:47:12.780Z,80.98
2023-01-17T04:48:14.324Z,81.03
2023-01-17T04:49:16.852Z,80.73
2023-01-17T04:50:18.816Z,80.47
2023-01-17T04:51:23.756Z,80.86
2023-01-17T04:52:25.459Z,80.90
2023-01-17T04:53:28.428Z,80.30
2023-01-17T04:54:29.974Z,81.62
2023-01-17T04:55:32.970Z,81.01
2023-01-17T04:56:34.495Z,81.80
2023-01-17T04:57:37.011Z,82.49
2023-01-17T04:58:38.583Z,81.70
2023-01-17T04:59:41.169Z,81.16
2023-01-17T05:00:42.693Z,81.39
2023-01-17T05:01:45.349Z,81.86
2023-01-17T05:02:46.906Z,82.67
2023-01-17T05:03:49.463Z,82.75
2023-01-17T05:04:51.010Z,82.70
2023-01-17T05:05:53.548Z,82.66
2023-01-17T05:06:56.388Z,83.21
2023-01-17T05:07:59.257Z,82.98
2023-01-17T05:09:02.771Z,83.18
2023-01-17T05:10:06.050Z,82.58
2023-01-17T05:11:07.741Z,81.62
2023-01-17T05:12:10.651Z,81.66
2023-01-17T05:13:12.240Z,80.68
2023-01-17T05:14:14.759Z,80.77
2023-01-17T05:15:16.730Z,81.42
2023-01-17T05:16:20.190Z,80.79
2023-01-17T05:17:21.766Z,81.64
2023-01-17T05:18:24.754Z,81.62
2023-01-17T05:19:27.033Z,80.88
2023-01-17T05:20:29.544Z,80.17
2023-01-17T05:21:36.359Z,80.18
2023-01-17T05:22:39.287Z,81.21
2023-01-17T05:23:42.663Z,80.88
2023-01-17T05:24:45.783Z,80.38
2023-01-17T05:25:48.447Z,80.29
2023-01-17T05:26:54.724Z,79.88
2023-01-17T05:27:59.921Z,79.51
2023-01-17T05:29:01.455Z,80.20
2023-01-17T05:30:04.253Z,79.30
2023-01-17T05:31:07.481Z,79.93
2023-01-17T05:32:09.251Z,79.70
2023-01-17T05:33:11.776Z,80.10
2023-01-17T05:34:13.335Z,79.77
2023-01-17T05:35:15.930Z,79.99
2023-01-17T05:36:17.917Z,80.76
2023-01-17T05:37:21.979Z,80.10
2023-01-17T05:38:24.925Z,79.21
2023-01-17T05:39:27.558Z,78.71
2023-01-17T05:40:31.356Z,79.68
2023-01-17T05:41:33.810Z,80.48
2023-01-17T05:42:35.451Z,80.21
2023-01-17T05:43:37.905Z,80.22
2023-01-17T05:44:40.622Z,79.65
2023-01-17T05:45:43.469Z,79.48
2023-01-17T05:46:45.073Z,80.52
2023-01-17T05:47:49.069Z,80.15
2023-01-17T05:48:51.537Z,80.01
2023-01-17T05:49:53.095Z,80.18
2023-01-17T05:50:55.691Z,80.23
2023-01-17T05:51:57.972Z,80.43
2023-01-17T05:53:03.030Z,80.32
2023-01-17T05:54:06.905Z,79.96
2023-01-17T05:55:10.335Z,79.96
2023-01-17T05:56:12.914Z,79.81
2023-01-17T05:57:16.712Z,79.92
2023-01-17T05:58:21.424Z,79.62
2023-01-17T05:59:36.176Z,79.77
2023-01-17T06:00:39.776Z,80.36
2023-01-17T06:01:43.968Z,79.88
2023-01-17T06:02:47.015Z,79.72
2023-01-17T06:03:48.764Z,79.21
2023-01-17T06:04:51.328Z,79.17
2023-01-17T06:05:53.889Z,79.62
2023-01-17T06:06:55.697Z,78.82
2023-01-17T06:07:58.535Z,79.36
2023-01-17T06:09:00.105Z,78.80
2023-01-17T06:10:04.119Z,78.96
2023-01-17T06:11:06.933Z,79.27
2023-01-17T06:12:08.484Z,78.75
2023-01-17T06:13:14.241Z,78.91
2023-01-17T06:14:15.774Z,78.54
2023-01-17T06:15:19.575Z,78.37
2023-01-17T06:16:21.213Z,78.66
2023-01-17T06:17:23.733Z,78.54
2023-01-17T06:18:25.333Z,78.64
2023-01-17T06:19:27.818Z,78.65
2023-01-17T06:20:29.392Z,78.35
2023-01-17T06:21:31.923Z,78.41
2023-01-17T06:22:33.659Z,79.10
2023-01-17T06:23:36.202Z,79.21
2023-01-17T06:24:37.847Z,78.92
2023-01-17T06:25:44.437Z,78.35
2023-01-17T06:26:45.999Z,78.12
2023-01-17T06:27:48.541Z,78.52
2023-01-17T06:28:50.066Z,78.53
2023-01-17T06:29:52.938Z,79.09
2023-01-17T06:30:55.601Z,79.05
2023-01-17T06:31:57.303Z,78.61
2023-01-17T06:32:59.839Z,78.03
2023-01-17T06:34:02.139Z,77.58
2023-01-17T06:35:04.949Z,78.62
2023-01-17T06:36:07.221Z,77.83
2023-01-17T06:37:11.293Z,78.09
2023-01-17T06:38:13.855Z,78.12
2023-01-17T06:39:15.441Z,77.90
2023-01-17T06:40:18.547Z,77.92
2023-01-17T06:41:23.200Z,78.30
2023-01-17T06:42:24.778Z,77.80
2023-01-17T06:43:28.877Z,78.04
2023-01-17T06:44:30.454Z,78.09
2023-01-17T06:45:35.392Z,77.72
2023-01-17T06:46:37.177Z,77.45
2023-01-17T06:47:40.265Z,77.85
2023-01-17T06:48:46.267Z,78.42
2023-01-17T06:49:47.828Z,77.63
2023-01-17T06:50:50.875Z,77.75
2023-01-17T06:51:52.455Z,77.62
2023-01-17T06:52:56.731Z,77.84
2023-01-17T06:53:58.316Z,77.71
2023-01-17T06:55:01.076Z,77.54
2023-01-17T06:56:03.654Z,77.82
2023-01-17T06:57:06.486Z,77.35
2023-01-17T06:58:09.769Z,76.86
2023-01-17T06:59:11.280Z,77.10
2023-01-17T07:00:14.962Z,77.56
2023-01-17T07:01:17.142Z,77.24
2023-01-17T07:02:19.791Z,76.91
2023-01-17T07:03:24.409Z,76.85
2023-01-17T07:04:27.078Z,76.91
2023-01-17T07:05:29.158Z,76.76
2023-01-17T07:06:31.942Z,76.48
2023-01-17T07:07:33.803Z,76.94
2023-01-17T07:08:37.443Z,77.18
2023-01-17T07:09:40.053Z,77.32
2023-01-17T07:10:41.639Z,77.50
2023-01-17T07:11:45.321Z,77.45
2023-01-17T07:12:48.189Z,77.06
2023-01-17T07:13:50.912Z,77.49
2023-01-17T07:14:52.463Z,77.68
2023-01-17T07:15:55.071Z,77.52
2023-01-17T07:16:58.276Z,77.65
2023-01-17T07:18:01.191Z,77.17
2023-01-17T07:19:03.879Z,77.34
2023-01-17T07:20:07.733Z,77.23
2023-01-17T07:21:13.946Z,77.09
2023-01-17T07:22:15.496Z,77.44
2023-01-17T07:23:18.410Z,76.80
2023-01-17T07:24:20.760Z,76.75
2023-01-17T07:25:23.343Z,76.50
2023-01-17T07:26:24.948Z,76.80
2023-01-17T07:27:30.448Z,77.21
2023-01-17T07:28:34.071Z,77.32
2023-01-17T07:29:36.845Z,77.06
2023-01-17T07:30:38.464Z,76.59
2023-01-17T07:31:41.061Z,76.39
2023-01-17T07:32:42.734Z,76.23
2023-01-17T07:33:45.341Z,76.57
2023-01-17T07:34:46.886Z,76.09
2023-01-17T07:35:49.513Z,75.90
2023-01-17T07:36:54.401Z,75.67
2023-01-17T07:37:56.927Z,76.29
2023-01-17T07:38:58.578Z,75.71
2023-01-17T07:40:02.522Z,75.74
2023-01-17T07:41:05.497Z,76.15
2023-01-17T07:42:07.190Z,75.93
2023-01-17T07:43:14.044Z,76.19
2023-01-17T07:44:16.950Z,76.04
2023-01-17T07:45:21.323Z,76.19
2023-01-17T07:46:23.301Z,75.80
2023-01-17T07:47:25.869Z,76.75
2023-01-17T07:48:28.426Z,76.69
2023-01-17T07:49:29.979Z,76.13
2023-01-17T07:50:32.494Z,76.82
2023-01-17T07:51:34.091Z,76.15
2023-01-17T07:52:36.606Z,76.45
2023-01-17T07:53:39.092Z,75.92
2023-01-17T07:54:42.198Z,75.90
2023-01-17T07:55:44.835Z,75.49
2023-01-17T07:56:47.173Z,76.14
2023-01-17T07:57:51.295Z,76.17
2023-01-17T07:58:52.850Z,76.08
2023-01-17T07:59:56.713Z,75.42
2023-01-17T08:01:02.124Z,75.35
2023-01-17T08:02:04.698Z,75.88
2023-01-17T08:03:06.434Z,75.33
2023-01-17T08:04:09.352Z,75.05
2023-01-17T08:05:12.127Z,74.57
2023-01-17T08:06:19.712Z,74.80
2023-01-17T08:07:22.321Z,74.33
2023-01-17T08:08:24.325Z,74.85
2023-01-17T08:09:27.035Z,75.54
2023-01-17T08:10:29.582Z,75.12
2023-01-17T08:11:32.249Z,74.99
2023-01-17T08:12:35.929Z,75.03
2023-01-17T08:13:38.465Z,74.89
2023-01-17T08:14:40.042Z,74.57
2023-01-17T08:15:44.149Z,74.36
2023-01-17T08:16:46.720Z,74.67
2023-01-17T08:17:53.119Z,74.26
2023-01-17T08:18:56.104Z,74.79
2023-01-17T08:19:57.692Z,74.64
2023-01-17T08:21:00.152Z,74.93
2023-01-17T08:22:02.748Z,75.16
2023-01-17T08:23:05.258Z,74.59
2023-01-17T08:24:12.402Z,74.80
2023-01-17T08:25:13.974Z,75.09
2023-01-17T08:26:21.379Z,75.96
2023-01-17T08:27:24.128Z,75.66
2023-01-17T08:28:25.707Z,75.34
2023-01-17T08:29:28.308Z,75.84
2023-01-17T08:30:30.946Z,75.96
2023-01-17T08:31:36.691Z,75.59
2023-01-17T08:32:40.692Z,75.55
2023-01-17T08:33:43.241Z,75.87
2023-01-17T08:34:45.784Z,75.84
2023-01-17T08:35:52.017Z,75.71
2023-01-17T08:36:55.020Z,75.52
2023-01-17T08:37:59.959Z,76.23
2023-01-17T08:39:02.483Z,75.57
2023-01-17T08:40:05.686Z,75.66
2023-01-17T08:41:08.195Z,75.05
2023-01-17T08:42:10.687Z,75.02
2023-01-17T08:43:13.309Z,74.72
2023-01-17T08:44:15.851Z,74.95
2023-01-17T08:45:18.798Z,75.14
2023-01-17T08:46:21.422Z,74.96
2023-01-17T08:47:25.237Z,74.89
2023-01-17T08:48:26.784Z,74.33
2023-01-17T08:49:29.284Z,74.30
2023-01-17T08:50:30.825Z,74.13
2023-01-17T08:51:33.540Z,74.55
2023-01-17T08:52:36.032Z,73.89
2023-01-17T08:53:38.690Z,73.41
2023-01-17T08:54:40.244Z,73.32
2023-01-17T08:55:43.089Z,72.46
2023-01-17T08:56:46.901Z,73.42
2023-01-17T08:57:49.443Z,72.70
2023-01-17T08:58:50.962Z,73.31
2023-01-17T08:59:53.570Z,73.53
2023-01-17T09:00:56.417Z,72.97
2023-01-17T09:02:01.255Z,72.90
2023-01-17T09:03:05.361Z,72.98
2023-01-17T09:04:08.203Z,72.70
2023-01-17T09:05:11.777Z,72.55
2023-01-17T09:06:15.634Z,72.04
2023-01-17T09:07:20.094Z,72.12
2023-01-17T09:08:22.774Z,71.87
2023-01-17T09:09:24.492Z,71.85
2023-01-17T09:10:27.149Z,71.88
2023-01-17T09:11:29.727Z,71.80
2023-01-17T09:12:32.532Z,72.34
2023-01-17T09:13:35.410Z,72.67
2023-01-17T09:14:38.251Z,71.78
2023-01-17T09:15:40.856Z,71.64
2023-01-17T09:16:43.449Z,71.82
2023-01-17T09:17:45.004Z,71.25
2023-01-17T09:18:48.877Z,70.58
2023-01-17T09:19:52.554Z,70.85
2023-01-17T09:20:55.432Z,69.99
2023-01-17T09:21:58.238Z,69.93
2023-01-17T09:23:03.231Z,69.61
2023-01-17T09:24:06.131Z,69.74
2023-01-17T09:25:08.370Z,68.94
2023-01-17T09:26:20.880Z,68.36
2023-01-17T09:27:22.672Z,68.49
2023-01-17T09:28:26.062Z,69.54
2023-01-17T09:29:28.642Z,68.66
2023-01-17T09:30:31.227Z,68.63
2023-01-17T09:31:32.902Z,68.63
2023-01-17T09:32:35.411Z,68.70
2023-01-17T09:33:37.057Z,68.94
2023-01-17T09:34:41.026Z,68.82
2023-01-17T09:35:42.607Z,69.07
2023-01-17T09:36:45.751Z,68.90
2023-01-17T09:37:49.110Z,68.40
2023-01-17T09:38:57.363Z,67.83
2023-01-17T09:39:59.911Z,67.84
2023-01-17T09:41:02.748Z,68.30
2023-01-17T09:42:19.249Z,67.20
2023-01-17T09:43:25.545Z,67.52
2023-01-17T09:44:30.662Z,67.31
2023-01-17T09:45:36.247Z,67.75
2023-01-17T09:46:42.177Z,67.81
2023-01-17T09:47:47.198Z,67.75
2023-01-17T09:48:58.594Z,67.80
2023-01-17T09:50:17.083Z,67.28
2023-01-17T09:51:24.134Z,68.13
2023-01-17T09:52:30.813Z,67.60
2023-01-17T09:53:38.389Z,67.72
2023-01-17T09:54:43.299Z,67.42
2023-01-17T09:55:53.201Z,66.81
2023-01-17T09:57:04.012Z,67.30
2023-01-17T09:58:09.522Z,68.24
2023-01-17T09:59:32.689Z,67.77
2023-01-17T10:00:48.118Z,68.92
2023-01-17T10:01:58.452Z,68.48
2023-01-17T10:03:26.992Z,68.50
2023-01-17T10:04:48.979Z,68.99
2023-01-17T10:06:02.596Z,68.59
2023-01-17T10:07:18.689Z,68.64
2023-01-17T10:08:39.575Z,68.86
2023-01-17T10:09:56.329Z,68.83
2023-01-17T10:11:17.112Z,68.97
2023-01-17T10:12:25.892Z,68.87
2023-01-17T10:13:40.210Z,68.69
2023-01-17T10:14:56.511Z,69.27
2023-01-17T10:16:13.463Z,68.80
2023-01-17T10:17:25.029Z,68.98
2023-01-17T10:18:44.466Z,68.47
2023-01-17T10:20:00.490Z,68.63
2023-01-17T10:21:11.933Z,68.69
2023-01-17T10:22:34.469Z,69.08
2023-01-17T10:23:52.763Z,68.50
2023-01-17T10:25:14.061Z,68.42
2023-01-17T10:26:20.414Z,67.81
2023-01-17T10:27:25.329Z,67.93
2023-01-17T10:28:34.510Z,67.90
2023-01-17T10:29:37.800Z,68.29
2023-01-17T10:30:46.151Z,68.12
2023-01-17T10:31:54.221Z,68.10
2023-01-17T10:32:59.387Z,68.74
2023-01-17T10:34:07.867Z,68.32
2023-01-17T10:35:21.280Z,68.61
2023-01-17T10:36:27.346Z,68.06
2023-01-17T10:37:40.341Z,67.54
2023-01-17T10:38:48.230Z,65.57
2023-01-17T10:39:53.493Z,65.83
2023-01-17T10:41:00.579Z,66.11
2023-01-17T10:42:08.472Z,65.92
2023-01-17T10:43:18.647Z,65.85
2023-01-17T10:44:26.189Z,65.50
2023-01-17T10:45:29.995Z,64.79
2023-01-17T10:46:38.954Z,62.14
2023-01-17T10:47:47.347Z,62.36
2023-01-17T10:48:53.495Z,62.11
2023-01-17T10:49:59.435Z,62.78
2023-01-17T10:51:10.775Z,63.43
2023-01-17T10:52:29.368Z,63.88
2023-01-17T10:53:43.093Z,63.97
2023-01-17T10:54:54.780Z,63.06
2023-01-17T10:55:58.022Z,61.68
2023-01-17T10:57:00.588Z,60.72
2023-01-17T10:58:03.154Z,61.39
2023-01-17T10:59:18.770Z,61.20
2023-01-17T11:00:31.831Z,61.79
2023-01-17T11:01:34.678Z,62.03
2023-01-17T11:02:50.578Z,61.84
2023-01-17T11:03:54.617Z,61.92
2023-01-17T11:04:59.034Z,61.76
2023-01-17T11:06:16.600Z,62.98
2023-01-17T11:07:21.297Z,62.44
2023-01-17T11:08:23.840Z,62.27
2023-01-17T11:09:39.019Z,61.81
2023-01-17T11:10:44.768Z,61.19
2023-01-17T11:11:49.833Z,61.39
2023-01-17T11:12:52.913Z,61.65
2023-01-17T11:13:55.356Z,60.60
2023-01-17T11:15:03.998Z,61.78
2023-01-17T11:16:09.992Z,61.19
2023-01-17T11:17:13.533Z,60.57
2023-01-17T11:18:18.216Z,60.79
2023-01-17T11:19:28.711Z,61.23
2023-01-17T11:20:38.431Z,60.54
2023-01-17T11:21:50.191Z,60.48
2023-01-17T11:23:07.864Z,61.05
2023-01-17T11:24:13.322Z,60.50
2023-01-17T11:25:22.358Z,60.75
2023-01-17T11:26:28.396Z,60.24
2023-01-17T11:27:33.568Z,59.86
2023-01-17T11:28:36.370Z,59.61
2023-01-17T11:29:40.374Z,60.89
2023-01-17T11:30:51.638Z,60.49
2023-01-17T11:31:56.203Z,61.06
2023-01-17T11:32:59.100Z,61.78
2023-01-17T11:34:15.887Z,60.65
2023-01-17T11:35:21.258Z,59.09
2023-01-17T11:36:27.334Z,57.52
2023-01-17T11:37:29.289Z,55.87
2023-01-17T11:38:33.152Z,55.04
2023-01-17T11:39:35.823Z,53.16
2023-01-17T11:40:40.443Z,52.80
2023-01-17T11:41:43.307Z,51.43
2023-01-17T11:42:46.181Z,50.74
2023-01-17T11:43:52.464Z,49.19
2023-01-17T11:44:55.032Z,48.30
2023-01-17T11:46:17.748Z,47.18
2023-01-17T11:47:20.553Z,47.62
2023-01-17T11:48:23.899Z,49.07
2023-01-17T11:49:27.129Z,48.06
2023-01-17T11:50:29.445Z,48.00
2023-01-17T11:51:34.316Z,48.34
2023-01-17T11:52:38.998Z,48.34
2023-01-17T11:53:48.141Z,47.52
2023-01-17T11:54:52.501Z,47.60
2023-01-17T11:56:02.479Z,47.79
2023-01-17T11:57:05.921Z,48.28
2023-01-17T11:58:14.259Z,48.10
2023-01-17T11:59:25.604Z,47.42
2023-01-17T12:00:34.015Z,48.03
2023-01-17T12:01:41.031Z,47.33
2023-01-17T12:03:22.307Z,46.41
2023-01-17T12:04:27.290Z,46.60
2023-01-17T12:05:41.910Z,47.45
2023-01-17T12:06:58.026Z,46.48
2023-01-17T12:08:11.462Z,47.12
2023-01-17T12:09:24.929Z,45.07
2023-01-17T12:10:34.553Z,43.57
2023-01-17T12:12:08.735Z,41.97
2023-01-17T12:13:36.986Z,43.03
2023-01-17T12:14:50.897Z,41.59
2023-01-17T12:16:22.592Z,41.04
2023-01-17T12:17:35.145Z,42.47
2023-01-17T12:18:45.211Z,42.58
2023-01-17T12:20:01.544Z,41.93
2023-01-17T12:21:16.405Z,42.99
2023-01-17T12:22:29.561Z,42.09
2023-01-17T12:23:45.779Z,42.58
2023-01-17T12:25:07.869Z,41.37
2023-01-17T12:26:23.895Z,42.75
2023-01-17T12:27:36.230Z,42.60
2023-01-17T12:29:14.164Z,42.24
2023-01-17T12:30:30.746Z,43.79
2023-01-17T12:31:37.674Z,45.47
2023-01-17T12:32:54.574Z,42.68
2023-01-17T12:34:01.165Z,43.25
2023-01-17T12:35:12.367Z,43.17
2023-01-17T12:36:33.039Z,42.30
2023-01-17T12:37:39.921Z,41.17
2023-01-17T12:38:42.973Z,40.79
2023-01-17T12:39:50.222Z,41.61
2023-01-17T12:41:00.049Z,41.87
2023-01-17T12:42:06.828Z,41.73
2023-01-17T12:43:18.321Z,40.82
2023-01-17T12:44:31.205Z,40.84
2023-01-17T12:45:39.270Z,40.86
2023-01-17T12:46:49.325Z,41.34
2023-01-17T12:47:59.722Z,39.91
2023-01-17T12:49:16.502Z,40.12
2023-01-17T12:50:24.939Z,41.03
2023-01-17T12:51:31.463Z,40.74
2023-01-17T12:52:45.664Z,42.77
2023-01-17T12:53:58.165Z,43.52
2023-01-17T12:55:05.846Z,43.06
2023-01-17T12:56:17.942Z,43.24
2023-01-17T12:57:23.237Z,44.60
2023-01-17T12:58:29.232Z,45.98
2023-01-17T12:59:37.751Z,47.17
2023-01-17T13:00:40.586Z,47.33
2023-01-17T13:01:44.211Z,48.47
2023-01-17T13:02:52.266Z,49.00
2023-01-17T13:04:04.718Z,49.12
2023-01-17T13:05:15.225Z,49.22
2023-01-17T13:06:25.950Z,50.30
2023-01-17T13:07:40.477Z,50.97
2023-01-17T13:08:49.659Z,52.87
2023-01-17T13:09:56.503Z,52.97
2023-01-17T13:11:06.188Z,53.59
2023-01-17T13:12:14.653Z,54.48
2023-01-17T13:13:22.315Z,54.59
2023-01-17T13:14:24.887Z,54.60
2023-01-17T13:15:32.331Z,54.66
2023-01-17T13:16:42.181Z,55.96
2023-01-17T13:17:48.591Z,55.79
2023-01-17T13:18:53.482Z,55.07
2023-01-17T13:20:00.983Z,54.72
2023-01-17T13:21:15.539Z,54.75
2023-01-17T13:22:21.776Z,54.99
2023-01-17T13:23:29.291Z,55.05
2023-01-17T13:24:43.363Z,55.81
2023-01-17T13:25:49.383Z,56.40
2023-01-17T13:27:07.818Z,56.58
2023-01-17T13:28:18.709Z,56.33
2023-01-17T13:29:25.139Z,56.21
2023-01-17T13:30:45.900Z,56.48
2023-01-17T13:31:53.053Z,58.31
2023-01-17T13:33:24.776Z,58.78
2023-01-17T13:34:41.133Z,59.57
2023-01-17T13:35:54.699Z,59.96
2023-01-17T13:37:10.977Z,58.67
2023-01-17T13:38:30.842Z,58.15
2023-01-17T13:39:50.409Z,59.55
2023-01-17T13:40:55.740Z,59.29
2023-01-17T13:42:11.311Z,58.51
2023-01-17T13:43:19.552Z,58.15
2023-01-17T13:44:25.937Z,57.80
2023-01-17T13:45:30.813Z,58.54
2023-01-17T13:46:57.323Z,57.63
2023-01-17T13:48:29.276Z,58.01
2023-01-17T13:49:44.066Z,58.87
2023-01-17T13:50:50.560Z,58.81
2023-01-17T13:52:11.943Z,58.42
2023-01-17T13:54:00.019Z,59.58
2023-01-17T13:55:04.050Z,58.77
2023-01-17T13:56:13.431Z,58.26
2023-01-17T13:57:43.758Z,58.33
2023-01-17T13:59:06.987Z,57.71
2023-01-17T14:00:54.856Z,58.41
2023-01-17T14:01:58.194Z,58.46
2023-01-17T14:02:59.834Z,58.72
2023-01-17T14:04:05.238Z,58.32
2023-01-17T14:05:11.244Z,59.37
2023-01-17T14:06:30.464Z,60.90
2023-01-17T14:07:35.491Z,60.88
2023-01-17T14:08:39.603Z,60.61
2023-01-17T14:09:43.603Z,60.22
2023-01-17T14:10:47.598Z,60.06
2023-01-17T14:12:00.111Z,60.69
2023-01-17T14:13:04.845Z,60.56
2023-01-17T14:14:40.249Z,60.47
2023-01-17T14:15:51.144Z,61.19
2023-01-17T14:16:52.566Z,61.70
2023-01-17T14:17:58.428Z,62.64
2023-01-17T14:19:01.251Z,62.35
2023-01-17T14:20:29.397Z,62.44
2023-01-17T14:21:32.872Z,62.57
2023-01-17T14:22:37.541Z,62.46
2023-01-17T14:23:52.645Z,62.36
2023-01-17T14:25:00.497Z,62.53